sensor_id;sensor_type;location;lat;lon;timestamp;P1;durP1;ratioP1;P2;durP2;ratioP2
23506;SDS011;11930;53.076;18.250;2024-03-23T00:52:23;9.13;;;2.43;;
23506;SDS011;11930;53.076;18.250;2024-03-23T00:54:49;10.40;;;2.60;;
23506;SDS011;11930;53.076;18.250;2024-03-23T00:57:15;7.33;;;2.53;;
23506;SDS011;11930;53.076;18.250;2024-03-23T00:59:42;11.60;;;3.00;;
23506;SDS011;11930;53.076;18.250;2024-03-23T01:02:08;9.27;;;2.83;;
23506;SDS011;11930;53.076;18.250;2024-03-23T01:04:34;11.17;;;2.90;;
23506;SDS011;11930;53.076;18.250;2024-03-23T01:07:00;10.33;;;2.77;;
23506;SDS011;11930;53.076;18.250;2024-03-23T01:09:27;9.37;;;2.30;;
23506;SDS011;11930;53.076;18.250;2024-03-23T01:11:53;6.40;;;2.50;;
23506;SDS011;11930;53.076;18.250;2024-03-23T01:14:20;8.87;;;2.47;;
23506;SDS011;11930;53.076;18.250;2024-03-23T01:16:46;8.03;;;2.53;;
23506;SDS011;11930;53.076;18.250;2024-03-23T01:19:12;8.33;;;2.30;;
23506;SDS011;11930;53.076;18.250;2024-03-23T01:21:38;12.17;;;2.73;;
23506;SDS011;11930;53.076;18.250;2024-03-23T01:24:05;8.73;;;2.13;;
23506;SDS011;11930;53.076;18.250;2024-03-23T01:26:32;6.77;;;2.20;;
23506;SDS011;11930;53.076;18.250;2024-03-23T01:28:58;10.03;;;2.80;;
23506;SDS011;11930;53.076;18.250;2024-03-23T01:31:24;6.67;;;2.47;;
23506;SDS011;11930;53.076;18.250;2024-03-23T01:33:50;7.37;;;2.30;;
23506;SDS011;11930;53.076;18.250;2024-03-23T01:36:16;8.77;;;2.80;;
23506;SDS011;11930;53.076;18.250;2024-03-23T01:38:44;9.07;;;3.10;;
23506;SDS011;11930;53.076;18.250;2024-03-23T01:41:10;10.10;;;3.00;;
23506;SDS011;11930;53.076;18.250;2024-03-23T01:43:36;11.27;;;3.57;;
23506;SDS011;11930;53.076;18.250;2024-03-23T01:46:02;8.03;;;2.93;;
23506;SDS011;11930;53.076;18.250;2024-03-23T01:48:29;13.27;;;3.20;;
23506;SDS011;11930;53.076;18.250;2024-03-23T01:50:55;10.97;;;3.00;;
23506;SDS011;11930;53.076;18.250;2024-03-23T01:53:21;10.47;;;3.33;;
23506;SDS011;11930;53.076;18.250;2024-03-23T01:55:49;10.40;;;3.60;;
23506;SDS011;11930;53.076;18.250;2024-03-23T01:58:17;10.53;;;3.60;;
23506;SDS011;11930;53.076;18.250;2024-03-23T02:00:43;10.73;;;3.93;;
23506;SDS011;11930;53.076;18.250;2024-03-23T02:03:21;10.50;;;3.60;;
23506;SDS011;11930;53.076;18.250;2024-03-23T02:05:49;10.13;;;3.43;;
23506;SDS011;11930;53.076;18.250;2024-03-23T02:08:17;10.70;;;3.67;;
23506;SDS011;11930;53.076;18.250;2024-03-23T02:10:44;10.47;;;3.63;;
23506;SDS011;11930;53.076;18.250;2024-03-23T02:13:10;10.93;;;4.10;;
23506;SDS011;11930;53.076;18.250;2024-03-23T02:15:37;10.50;;;4.00;;
23506;SDS011;11930;53.076;18.250;2024-03-23T02:18:06;11.23;;;3.93;;
23506;SDS011;11930;53.076;18.250;2024-03-23T02:20:33;10.07;;;4.17;;
23506;SDS011;11930;53.076;18.250;2024-03-23T02:22:59;8.97;;;3.93;;
23506;SDS011;11930;53.076;18.250;2024-03-23T02:25:25;13.50;;;3.80;;
23506;SDS011;11930;53.076;18.250;2024-03-23T02:27:52;9.17;;;3.33;;
23506;SDS011;11930;53.076;18.250;2024-03-23T02:30:19;11.70;;;3.47;;
23506;SDS011;11930;53.076;18.250;2024-03-23T02:32:46;14.67;;;3.33;;
23506;SDS011;11930;53.076;18.250;2024-03-23T02:35:12;7.37;;;3.30;;
23506;SDS011;11930;53.076;18.250;2024-03-23T02:37:38;9.17;;;3.33;;
23506;SDS011;11930;53.076;18.250;2024-03-23T02:40:04;10.10;;;3.40;;
23506;SDS011;11930;53.076;18.250;2024-03-23T02:42:31;8.97;;;3.57;;
23506;SDS011;11930;53.076;18.250;2024-03-23T02:44:57;11.30;;;3.10;;
23506;SDS011;11930;53.076;18.250;2024-03-23T02:47:24;12.37;;;3.43;;
23506;SDS011;11930;53.076;18.250;2024-03-23T02:49:51;9.97;;;3.60;;
23506;SDS011;11930;53.076;18.250;2024-03-23T02:52:17;9.97;;;3.23;;
23506;SDS011;11930;53.076;18.250;2024-03-23T02:54:43;12.27;;;2.93;;
23506;SDS011;11930;53.076;18.250;2024-03-23T02:57:11;11.07;;;3.43;;
23506;SDS011;11930;53.076;18.250;2024-03-23T02:59:37;10.23;;;2.87;;
23506;SDS011;11930;53.076;18.250;2024-03-23T03:02:03;15.07;;;3.30;;
23506;SDS011;11930;53.076;18.250;2024-03-23T03:04:30;11.90;;;2.90;;
23506;SDS011;11930;53.076;18.250;2024-03-23T03:06:57;10.13;;;3.00;;
23506;SDS011;11930;53.076;18.250;2024-03-23T03:09:23;12.43;;;3.73;;
23506;SDS011;11930;53.076;18.250;2024-03-23T03:11:49;9.77;;;3.00;;
23506;SDS011;11930;53.076;18.250;2024-03-23T03:14:15;9.50;;;2.83;;
23506;SDS011;11930;53.076;18.250;2024-03-23T03:16:42;12.00;;;3.20;;
23506;SDS011;11930;53.076;18.250;2024-03-23T03:19:08;8.43;;;2.87;;
23506;SDS011;11930;53.076;18.250;2024-03-23T03:21:36;15.17;;;4.40;;
23506;SDS011;11930;53.076;18.250;2024-03-23T03:24:02;12.73;;;3.13;;
23506;SDS011;11930;53.076;18.250;2024-03-23T03:26:29;11.00;;;2.80;;
23506;SDS011;11930;53.076;18.250;2024-03-23T03:28:55;14.00;;;3.20;;
23506;SDS011;11930;53.076;18.250;2024-03-23T03:31:22;10.07;;;3.57;;
23506;SDS011;11930;53.076;18.250;2024-03-23T03:33:49;9.47;;;3.20;;
23506;SDS011;11930;53.076;18.250;2024-03-23T03:36:16;10.60;;;3.60;;
23506;SDS011;11930;53.076;18.250;2024-03-23T03:38:42;11.57;;;3.77;;
23506;SDS011;11930;53.076;18.250;2024-03-23T03:41:09;9.87;;;2.73;;
23506;SDS011;11930;53.076;18.250;2024-03-23T03:43:35;12.40;;;2.83;;
23506;SDS011;11930;53.076;18.250;2024-03-23T03:46:01;10.50;;;3.07;;
23506;SDS011;11930;53.076;18.250;2024-03-23T03:48:28;11.00;;;3.60;;
23506;SDS011;11930;53.076;18.250;2024-03-23T03:50:54;7.17;;;2.80;;
23506;SDS011;11930;53.076;18.250;2024-03-23T03:53:21;8.60;;;3.10;;
23506;SDS011;11930;53.076;18.250;2024-03-23T03:55:47;6.77;;;2.70;;
23506;SDS011;11930;53.076;18.250;2024-03-23T03:58:13;8.50;;;2.70;;
23506;SDS011;11930;53.076;18.250;2024-03-23T04:00:40;10.77;;;2.97;;
23506;SDS011;11930;53.076;18.250;2024-03-23T04:03:06;7.40;;;2.53;;
23506;SDS011;11930;53.076;18.250;2024-03-23T04:05:32;11.57;;;3.30;;
23506;SDS011;11930;53.076;18.250;2024-03-23T04:07:58;6.30;;;2.40;;
23506;SDS011;11930;53.076;18.250;2024-03-23T04:10:24;7.87;;;2.70;;
23506;SDS011;11930;53.076;18.250;2024-03-23T04:12:52;8.30;;;2.77;;
23506;SDS011;11930;53.076;18.250;2024-03-23T04:15:19;9.83;;;2.77;;
23506;SDS011;11930;53.076;18.250;2024-03-23T04:17:45;10.27;;;2.80;;
23506;SDS011;11930;53.076;18.250;2024-03-23T04:20:12;10.77;;;3.10;;
23506;SDS011;11930;53.076;18.250;2024-03-23T04:22:42;9.13;;;2.97;;
23506;SDS011;11930;53.076;18.250;2024-03-23T04:25:09;9.10;;;2.97;;
23506;SDS011;11930;53.076;18.250;2024-03-23T04:27:36;6.70;;;3.03;;
23506;SDS011;11930;53.076;18.250;2024-03-23T04:30:03;8.40;;;3.00;;
23506;SDS011;11930;53.076;18.250;2024-03-23T04:32:36;6.43;;;2.63;;
23506;SDS011;11930;53.076;18.250;2024-03-23T04:35:03;10.73;;;3.27;;
23506;SDS011;11930;53.076;18.250;2024-03-23T04:37:35;8.73;;;3.47;;
23506;SDS011;11930;53.076;18.250;2024-03-23T04:40:03;11.57;;;4.00;;
23506;SDS011;11930;53.076;18.250;2024-03-23T04:42:30;9.27;;;3.33;;
23506;SDS011;11930;53.076;18.250;2024-03-23T04:44:56;6.73;;;3.43;;
23506;SDS011;11930;53.076;18.250;2024-03-23T04:47:23;11.50;;;4.07;;
23506;SDS011;11930;53.076;18.250;2024-03-23T04:49:49;12.20;;;4.27;;
23506;SDS011;11930;53.076;18.250;2024-03-23T04:52:18;10.47;;;3.63;;
23506;SDS011;11930;53.076;18.250;2024-03-23T04:54:44;9.30;;;3.77;;
23506;SDS011;11930;53.076;18.250;2024-03-23T04:57:11;16.83;;;4.57;;
23506;SDS011;11930;53.076;18.250;2024-03-23T04:59:37;13.47;;;4.57;;
23506;SDS011;11930;53.076;18.250;2024-03-23T05:02:03;10.90;;;4.47;;
23506;SDS011;11930;53.076;18.250;2024-03-23T05:04:29;13.77;;;5.57;;
23506;SDS011;11930;53.076;18.250;2024-03-23T05:06:57;18.77;;;6.90;;
23506;SDS011;11930;53.076;18.250;2024-03-23T05:09:24;16.70;;;8.03;;
23506;SDS011;11930;53.076;18.250;2024-03-23T05:11:55;22.10;;;8.47;;
23506;SDS011;11930;53.076;18.250;2024-03-23T05:14:22;21.00;;;8.47;;
23506;SDS011;11930;53.076;18.250;2024-03-23T05:16:48;22.13;;;9.07;;
23506;SDS011;11930;53.076;18.250;2024-03-23T05:19:15;23.37;;;9.57;;
23506;SDS011;11930;53.076;18.250;2024-03-23T05:21:41;26.70;;;11.33;;
23506;SDS011;11930;53.076;18.250;2024-03-23T05:24:07;20.53;;;10.20;;
23506;SDS011;11930;53.076;18.250;2024-03-23T05:26:34;23.37;;;10.73;;
23506;SDS011;11930;53.076;18.250;2024-03-23T05:29:01;27.93;;;11.80;;
23506;SDS011;11930;53.076;18.250;2024-03-23T05:31:28;27.07;;;10.47;;
23506;SDS011;11930;53.076;18.250;2024-03-23T05:33:56;28.70;;;13.00;;
23506;SDS011;11930;53.076;18.250;2024-03-23T05:36:22;30.07;;;11.70;;
23506;SDS011;11930;53.076;18.250;2024-03-23T05:38:53;26.40;;;11.17;;
23506;SDS011;11930;53.076;18.250;2024-03-23T05:41:19;27.90;;;11.10;;
23506;SDS011;11930;53.076;18.250;2024-03-23T05:43:46;25.17;;;10.60;;
23506;SDS011;11930;53.076;18.250;2024-03-23T05:46:12;27.70;;;10.20;;
23506;SDS011;11930;53.076;18.250;2024-03-23T05:48:38;17.80;;;8.00;;
23506;SDS011;11930;53.076;18.250;2024-03-23T05:51:04;20.40;;;9.53;;
23506;SDS011;11930;53.076;18.250;2024-03-23T05:53:30;22.97;;;9.43;;
23506;SDS011;11930;53.076;18.250;2024-03-23T05:56:01;18.90;;;8.60;;
23506;SDS011;11930;53.076;18.250;2024-03-23T05:58:32;16.47;;;6.87;;
23506;SDS011;11930;53.076;18.250;2024-03-23T06:00:59;18.53;;;6.23;;
23506;SDS011;11930;53.076;18.250;2024-03-23T06:03:27;15.87;;;5.63;;
23506;SDS011;11930;53.076;18.250;2024-03-23T06:05:54;18.00;;;5.70;;
23506;SDS011;11930;53.076;18.250;2024-03-23T06:08:22;14.53;;;5.27;;
23506;SDS011;11930;53.076;18.250;2024-03-23T06:10:48;15.70;;;6.97;;
23506;SDS011;11930;53.076;18.250;2024-03-23T06:13:16;23.73;;;8.43;;
23506;SDS011;11930;53.076;18.250;2024-03-23T06:15:43;20.47;;;7.17;;
23506;SDS011;11930;53.076;18.250;2024-03-23T06:18:11;17.90;;;7.07;;
23506;SDS011;11930;53.076;18.250;2024-03-23T06:20:37;19.13;;;6.73;;
23506;SDS011;11930;53.076;18.250;2024-03-23T06:23:04;18.43;;;7.83;;
23506;SDS011;11930;53.076;18.250;2024-03-23T06:25:30;23.17;;;9.23;;
23506;SDS011;11930;53.076;18.250;2024-03-23T06:27:56;22.17;;;8.20;;
23506;SDS011;11930;53.076;18.250;2024-03-23T06:30:24;16.87;;;6.53;;
23506;SDS011;11930;53.076;18.250;2024-03-23T06:32:52;16.53;;;4.73;;
23506;SDS011;11930;53.076;18.250;2024-03-23T06:35:18;14.77;;;4.03;;
23506;SDS011;11930;53.076;18.250;2024-03-23T06:37:45;11.63;;;3.80;;
23506;SDS011;11930;53.076;18.250;2024-03-23T06:40:11;10.60;;;3.83;;
23506;SDS011;11930;53.076;18.250;2024-03-23T06:42:37;14.90;;;3.50;;
23506;SDS011;11930;53.076;18.250;2024-03-23T06:45:03;17.37;;;8.07;;
23506;SDS011;11930;53.076;18.250;2024-03-23T06:47:31;29.20;;;15.93;;
23506;SDS011;11930;53.076;18.250;2024-03-23T06:49:58;27.43;;;12.77;;
23506;SDS011;11930;53.076;18.250;2024-03-23T06:52:29;20.73;;;8.07;;
23506;SDS011;11930;53.076;18.250;2024-03-23T06:54:55;20.47;;;7.67;;
23506;SDS011;11930;53.076;18.250;2024-03-23T06:57:22;20.20;;;7.40;;
23506;SDS011;11930;53.076;18.250;2024-03-23T06:59:48;19.40;;;7.27;;
23506;SDS011;11930;53.076;18.250;2024-03-23T07:02:15;18.30;;;8.20;;
23506;SDS011;11930;53.076;18.250;2024-03-23T07:04:42;14.27;;;6.50;;
23506;SDS011;11930;53.076;18.250;2024-03-23T07:07:08;16.40;;;6.30;;
23506;SDS011;11930;53.076;18.250;2024-03-23T07:09:34;14.63;;;5.50;;
23506;SDS011;11930;53.076;18.250;2024-03-23T07:12:00;13.90;;;5.03;;
23506;SDS011;11930;53.076;18.250;2024-03-23T07:14:27;17.30;;;5.47;;
23506;SDS011;11930;53.076;18.250;2024-03-23T07:16:53;14.77;;;4.90;;
23506;SDS011;11930;53.076;18.250;2024-03-23T07:19:19;13.83;;;5.17;;
23506;SDS011;11930;53.076;18.250;2024-03-23T07:21:45;11.37;;;4.17;;
23506;SDS011;11930;53.076;18.250;2024-03-23T07:24:13;13.77;;;4.87;;
23506;SDS011;11930;53.076;18.250;2024-03-23T07:26:39;11.63;;;3.23;;
23506;SDS011;11930;53.076;18.250;2024-03-23T07:29:06;11.57;;;3.80;;
23506;SDS011;11930;53.076;18.250;2024-03-23T07:31:32;11.10;;;4.10;;
23506;SDS011;11930;53.076;18.250;2024-03-23T07:33:58;13.63;;;4.23;;
23506;SDS011;11930;53.076;18.250;2024-03-23T07:36:25;12.80;;;3.70;;
23506;SDS011;11930;53.076;18.250;2024-03-23T07:38:51;11.83;;;4.00;;
23506;SDS011;11930;53.076;18.250;2024-03-23T07:41:18;13.33;;;4.63;;
23506;SDS011;11930;53.076;18.250;2024-03-23T07:43:46;23.50;;;9.27;;
23506;SDS011;11930;53.076;18.250;2024-03-23T07:46:14;19.00;;;6.20;;
23506;SDS011;11930;53.076;18.250;2024-03-23T07:48:40;19.83;;;7.47;;
23506;SDS011;11930;53.076;18.250;2024-03-23T07:51:09;17.03;;;5.20;;
23506;SDS011;11930;53.076;18.250;2024-03-23T07:53:37;13.50;;;3.80;;
23506;SDS011;11930;53.076;18.250;2024-03-23T07:58:34;15.33;;;4.43;;
23506;SDS011;11930;53.076;18.250;2024-03-23T08:01:04;14.43;;;4.53;;
23506;SDS011;11930;53.076;18.250;2024-03-23T08:03:34;16.03;;;4.83;;
23506;SDS011;11930;53.076;18.250;2024-03-23T08:06:11;11.17;;;3.37;;
23506;SDS011;11930;53.076;18.250;2024-03-23T08:08:38;12.27;;;4.03;;
23506;SDS011;11930;53.076;18.250;2024-03-23T08:11:06;14.90;;;3.83;;
23506;SDS011;11930;53.076;18.250;2024-03-23T08:13:33;11.97;;;3.60;;
23506;SDS011;11930;53.076;18.250;2024-03-23T08:16:01;15.73;;;4.30;;
23506;SDS011;11930;53.076;18.250;2024-03-23T08:18:29;10.80;;;3.40;;
23506;SDS011;11930;53.076;18.250;2024-03-23T08:20:58;10.30;;;3.17;;
23506;SDS011;11930;53.076;18.250;2024-03-23T08:23:29;9.53;;;2.83;;
23506;SDS011;11930;53.076;18.250;2024-03-23T08:28:26;14.97;;;3.87;;
23506;SDS011;11930;53.076;18.250;2024-03-23T08:30:53;13.53;;;4.13;;
23506;SDS011;11930;53.076;18.250;2024-03-23T08:33:20;13.50;;;4.00;;
23506;SDS011;11930;53.076;18.250;2024-03-23T08:35:57;12.30;;;2.93;;
23506;SDS011;11930;53.076;18.250;2024-03-23T08:38:25;14.30;;;4.97;;
23506;SDS011;11930;53.076;18.250;2024-03-23T08:41:01;13.67;;;4.30;;
23506;SDS011;11930;53.076;18.250;2024-03-23T08:43:28;59.87;;;21.93;;
23506;SDS011;11930;53.076;18.250;2024-03-23T08:46:09;22.83;;;7.83;;
23506;SDS011;11930;53.076;18.250;2024-03-23T08:48:43;17.90;;;6.50;;
23506;SDS011;11930;53.076;18.250;2024-03-23T08:51:12;23.07;;;10.97;;
23506;SDS011;11930;53.076;18.250;2024-03-23T08:53:39;13.63;;;5.63;;
23506;SDS011;11930;53.076;18.250;2024-03-23T08:56:06;12.57;;;4.03;;
23506;SDS011;11930;53.076;18.250;2024-03-23T08:58:33;24.50;;;8.83;;
23506;SDS011;11930;53.076;18.250;2024-03-23T09:01:04;34.93;;;12.87;;
23506;SDS011;11930;53.076;18.250;2024-03-23T09:03:34;45.97;;;14.77;;
23506;SDS011;11930;53.076;18.250;2024-03-23T09:06:02;75.70;;;23.23;;
23506;SDS011;11930;53.076;18.250;2024-03-23T09:08:39;34.10;;;10.40;;
23506;SDS011;11930;53.076;18.250;2024-03-23T09:11:07;64.57;;;20.30;;
23506;SDS011;11930;53.076;18.250;2024-03-23T09:13:35;45.23;;;15.17;;
23506;SDS011;11930;53.076;18.250;2024-03-23T09:16:02;25.03;;;8.73;;
23506;SDS011;11930;53.076;18.250;2024-03-23T09:18:33;25.80;;;8.57;;
23506;SDS011;11930;53.076;18.250;2024-03-23T09:21:01;23.93;;;8.63;;
23506;SDS011;11930;53.076;18.250;2024-03-23T09:23:28;18.17;;;6.83;;
23506;SDS011;11930;53.076;18.250;2024-03-23T09:25:55;11.13;;;4.00;;
23506;SDS011;11930;53.076;18.250;2024-03-23T09:28:21;10.57;;;4.20;;
23506;SDS011;11930;53.076;18.250;2024-03-23T09:30:48;27.43;;;10.07;;
23506;SDS011;11930;53.076;18.250;2024-03-23T09:33:14;18.73;;;6.03;;
23506;SDS011;11930;53.076;18.250;2024-03-23T09:35:41;13.07;;;4.73;;
23506;SDS011;11930;53.076;18.250;2024-03-23T09:38:08;11.77;;;4.77;;
23506;SDS011;11930;53.076;18.250;2024-03-23T09:40:39;13.13;;;5.83;;
23506;SDS011;11930;53.076;18.250;2024-03-23T09:43:07;14.10;;;4.40;;
23506;SDS011;11930;53.076;18.250;2024-03-23T09:45:36;20.57;;;6.27;;
23506;SDS011;11930;53.076;18.250;2024-03-23T09:48:05;17.03;;;6.27;;
23506;SDS011;11930;53.076;18.250;2024-03-23T09:50:34;15.80;;;5.77;;
23506;SDS011;11930;53.076;18.250;2024-03-23T09:53:01;11.87;;;3.20;;
23506;SDS011;11930;53.076;18.250;2024-03-23T09:55:28;11.97;;;4.87;;
23506;SDS011;11930;53.076;18.250;2024-03-23T09:57:54;10.10;;;4.57;;
23506;SDS011;11930;53.076;18.250;2024-03-23T10:00:20;22.80;;;7.80;;
23506;SDS011;11930;53.076;18.250;2024-03-23T10:02:46;16.83;;;7.20;;
23506;SDS011;11930;53.076;18.250;2024-03-23T10:05:19;12.83;;;4.63;;
23506;SDS011;11930;53.076;18.250;2024-03-23T10:07:52;15.67;;;7.50;;
23506;SDS011;11930;53.076;18.250;2024-03-23T10:10:19;9.80;;;3.70;;
23506;SDS011;11930;53.076;18.250;2024-03-23T10:12:47;10.20;;;4.37;;
23506;SDS011;11930;53.076;18.250;2024-03-23T10:17:45;4.67;;;2.33;;
23506;SDS011;11930;53.076;18.250;2024-03-23T10:20:12;3.83;;;1.90;;
23506;SDS011;11930;53.076;18.250;2024-03-23T10:22:38;5.40;;;2.73;;
23506;SDS011;11930;53.076;18.250;2024-03-23T10:25:07;7.40;;;3.27;;
23506;SDS011;11930;53.076;18.250;2024-03-23T10:27:34;5.93;;;2.50;;
23506;SDS011;11930;53.076;18.250;2024-03-23T10:30:11;5.00;;;1.50;;
23506;SDS011;11930;53.076;18.250;2024-03-23T10:32:40;4.03;;;1.33;;
23506;SDS011;11930;53.076;18.250;2024-03-23T10:35:19;3.07;;;1.10;;
23506;SDS011;11930;53.076;18.250;2024-03-23T10:37:49;2.27;;;0.93;;
23506;SDS011;11930;53.076;18.250;2024-03-23T10:40:17;2.63;;;1.00;;
23506;SDS011;11930;53.076;18.250;2024-03-23T10:42:44;2.70;;;1.20;;
23506;SDS011;11930;53.076;18.250;2024-03-23T10:45:10;3.63;;;0.93;;
23506;SDS011;11930;53.076;18.250;2024-03-23T10:47:37;4.57;;;1.50;;
23506;SDS011;11930;53.076;18.250;2024-03-23T10:50:04;7.30;;;1.73;;
23506;SDS011;11930;53.076;18.250;2024-03-23T10:52:33;4.83;;;1.70;;
23506;SDS011;11930;53.076;18.250;2024-03-23T10:55:03;6.23;;;1.30;;
23506;SDS011;11930;53.076;18.250;2024-03-23T10:57:37;3.70;;;1.47;;
23506;SDS011;11930;53.076;18.250;2024-03-23T11:00:11;2.10;;;1.10;;
23506;SDS011;11930;53.076;18.250;2024-03-23T11:02:38;4.20;;;1.23;;
23506;SDS011;11930;53.076;18.250;2024-03-23T11:05:27;7.33;;;1.90;;
23506;SDS011;11930;53.076;18.250;2024-03-23T11:07:50;6.00;;;1.90;;
23506;SDS011;11930;53.076;18.250;2024-03-23T11:10:24;5.60;;;2.00;;
23506;SDS011;11930;53.076;18.250;2024-03-23T11:12:55;6.13;;;2.17;;
23506;SDS011;11930;53.076;18.250;2024-03-23T11:15:41;7.27;;;2.63;;
23506;SDS011;11930;53.076;18.250;2024-03-23T11:18:09;10.67;;;3.10;;
23506;SDS011;11930;53.076;18.250;2024-03-23T11:20:35;8.40;;;2.60;;
23506;SDS011;11930;53.076;18.250;2024-03-23T11:23:02;7.43;;;2.37;;
23506;SDS011;11930;53.076;18.250;2024-03-23T11:25:29;6.57;;;2.27;;
23506;SDS011;11930;53.076;18.250;2024-03-23T11:27:56;6.47;;;1.93;;
23506;SDS011;11930;53.076;18.250;2024-03-23T11:30:24;8.60;;;2.93;;
23506;SDS011;11930;53.076;18.250;2024-03-23T11:32:52;9.27;;;3.17;;
23506;SDS011;11930;53.076;18.250;2024-03-23T11:38:17;6.17;;;2.63;;
23506;SDS011;11930;53.076;18.250;2024-03-23T11:40:45;8.73;;;2.30;;
23506;SDS011;11930;53.076;18.250;2024-03-23T11:43:15;7.97;;;2.60;;
23506;SDS011;11930;53.076;18.250;2024-03-23T11:45:44;7.37;;;2.30;;
23506;SDS011;11930;53.076;18.250;2024-03-23T11:48:18;5.47;;;2.17;;
23506;SDS011;11930;53.076;18.250;2024-03-23T11:50:50;6.73;;;2.60;;
23506;SDS011;11930;53.076;18.250;2024-03-23T11:53:23;6.67;;;2.60;;
23506;SDS011;11930;53.076;18.250;2024-03-23T11:55:55;6.90;;;2.30;;
23506;SDS011;11930;53.076;18.250;2024-03-23T11:58:24;10.57;;;4.87;;
23506;SDS011;11930;53.076;18.250;2024-03-23T12:03:30;9.60;;;3.50;;
23506;SDS011;11930;53.076;18.250;2024-03-23T12:06:06;9.60;;;4.13;;
23506;SDS011;11930;53.076;18.250;2024-03-23T12:08:33;10.00;;;4.30;;
23506;SDS011;11930;53.076;18.250;2024-03-23T12:11:07;10.27;;;3.93;;
23506;SDS011;11930;53.076;18.250;2024-03-23T12:13:38;8.93;;;3.50;;
23506;SDS011;11930;53.076;18.250;2024-03-23T12:16:12;7.00;;;3.27;;
23506;SDS011;11930;53.076;18.250;2024-03-23T12:18:40;8.70;;;2.90;;
23506;SDS011;11930;53.076;18.250;2024-03-23T12:21:07;7.07;;;2.80;;
23506;SDS011;11930;53.076;18.250;2024-03-23T12:23:34;6.53;;;3.10;;
23506;SDS011;11930;53.076;18.250;2024-03-23T12:26:01;6.07;;;3.23;;
23506;SDS011;11930;53.076;18.250;2024-03-23T12:28:30;5.80;;;3.50;;
23506;SDS011;11930;53.076;18.250;2024-03-23T12:30:57;10.90;;;3.30;;
23506;SDS011;11930;53.076;18.250;2024-03-23T12:33:24;10.33;;;3.10;;
23506;SDS011;11930;53.076;18.250;2024-03-23T12:35:50;8.73;;;3.10;;
23506;SDS011;11930;53.076;18.250;2024-03-23T12:38:17;6.73;;;3.10;;
23506;SDS011;11930;53.076;18.250;2024-03-23T12:40:46;8.30;;;3.23;;
23506;SDS011;11930;53.076;18.250;2024-03-23T12:43:13;7.77;;;3.43;;
23506;SDS011;11930;53.076;18.250;2024-03-23T12:45:40;6.23;;;2.40;;
23506;SDS011;11930;53.076;18.250;2024-03-23T12:48:06;6.83;;;2.40;;
23506;SDS011;11930;53.076;18.250;2024-03-23T12:50:33;5.57;;;2.13;;
23506;SDS011;11930;53.076;18.250;2024-03-23T12:53:00;7.10;;;2.37;;
23506;SDS011;11930;53.076;18.250;2024-03-23T12:55:26;5.20;;;2.40;;
23506;SDS011;11930;53.076;18.250;2024-03-23T12:57:52;5.00;;;2.23;;
23506;SDS011;11930;53.076;18.250;2024-03-23T13:00:18;5.40;;;2.27;;
23506;SDS011;11930;53.076;18.250;2024-03-23T13:02:45;6.93;;;2.33;;
23506;SDS011;11930;53.076;18.250;2024-03-23T13:05:12;7.27;;;2.80;;
23506;SDS011;11930;53.076;18.250;2024-03-23T13:07:41;6.07;;;2.43;;
23506;SDS011;11930;53.076;18.250;2024-03-23T13:10:07;6.90;;;2.83;;
23506;SDS011;11930;53.076;18.250;2024-03-23T13:12:34;6.03;;;3.10;;
23506;SDS011;11930;53.076;18.250;2024-03-23T13:15:00;8.37;;;3.20;;
23506;SDS011;11930;53.076;18.250;2024-03-23T13:17:27;8.27;;;2.67;;
23506;SDS011;11930;53.076;18.250;2024-03-23T13:19:54;7.60;;;2.50;;
23506;SDS011;11930;53.076;18.250;2024-03-23T13:22:23;4.73;;;1.83;;
23506;SDS011;11930;53.076;18.250;2024-03-23T13:24:50;5.63;;;1.70;;
23506;SDS011;11930;53.076;18.250;2024-03-23T13:27:16;5.07;;;2.40;;
23506;SDS011;11930;53.076;18.250;2024-03-23T13:29:42;4.10;;;1.73;;
23506;SDS011;11930;53.076;18.250;2024-03-23T13:32:08;5.20;;;1.70;;
23506;SDS011;11930;53.076;18.250;2024-03-23T13:34:35;6.03;;;2.00;;
23506;SDS011;11930;53.076;18.250;2024-03-23T13:37:01;4.30;;;1.80;;
23506;SDS011;11930;53.076;18.250;2024-03-23T13:39:29;3.93;;;1.40;;
23506;SDS011;11930;53.076;18.250;2024-03-23T13:41:56;3.27;;;1.50;;
23506;SDS011;11930;53.076;18.250;2024-03-23T13:44:22;7.97;;;2.00;;
23506;SDS011;11930;53.076;18.250;2024-03-23T13:46:49;4.77;;;1.70;;
23506;SDS011;11930;53.076;18.250;2024-03-23T13:49:28;6.83;;;3.80;;
23506;SDS011;11930;53.076;18.250;2024-03-23T13:51:55;7.40;;;3.40;;
23506;SDS011;11930;53.076;18.250;2024-03-23T13:54:24;7.13;;;3.10;;
23506;SDS011;11930;53.076;18.250;2024-03-23T13:56:51;6.50;;;3.50;;
23506;SDS011;11930;53.076;18.250;2024-03-23T13:59:18;6.23;;;3.03;;
23506;SDS011;11930;53.076;18.250;2024-03-23T14:01:45;3.50;;;1.80;;
23506;SDS011;11930;53.076;18.250;2024-03-23T14:04:11;5.00;;;2.13;;
23506;SDS011;11930;53.076;18.250;2024-03-23T14:06:38;6.13;;;3.00;;
23506;SDS011;11930;53.076;18.250;2024-03-23T14:09:05;6.23;;;2.17;;
23506;SDS011;11930;53.076;18.250;2024-03-23T14:11:37;8.60;;;3.03;;
23506;SDS011;11930;53.076;18.250;2024-03-23T14:14:04;7.93;;;2.37;;
23506;SDS011;11930;53.076;18.250;2024-03-23T14:16:30;12.97;;;4.63;;
23506;SDS011;11930;53.076;18.250;2024-03-23T14:18:57;11.90;;;3.97;;
23506;SDS011;11930;53.076;18.250;2024-03-23T14:21:23;9.27;;;3.03;;
23506;SDS011;11930;53.076;18.250;2024-03-23T14:23:50;4.60;;;1.80;;
23506;SDS011;11930;53.076;18.250;2024-03-23T14:26:16;7.37;;;3.13;;
23506;SDS011;11930;53.076;18.250;2024-03-23T14:28:43;2.83;;;1.50;;
23506;SDS011;11930;53.076;18.250;2024-03-23T14:31:09;3.13;;;1.43;;
23506;SDS011;11930;53.076;18.250;2024-03-23T14:33:39;3.87;;;1.47;;
23506;SDS011;11930;53.076;18.250;2024-03-23T14:36:14;3.97;;;1.20;;
23506;SDS011;11930;53.076;18.250;2024-03-23T14:38:42;4.77;;;1.67;;
23506;SDS011;11930;53.076;18.250;2024-03-23T14:41:12;3.43;;;1.60;;
23506;SDS011;11930;53.076;18.250;2024-03-23T14:43:39;8.50;;;1.63;;
23506;SDS011;11930;53.076;18.250;2024-03-23T14:46:08;3.97;;;1.30;;
23506;SDS011;11930;53.076;18.250;2024-03-23T14:48:36;5.57;;;1.80;;
23506;SDS011;11930;53.076;18.250;2024-03-23T14:51:02;2.90;;;1.30;;
23506;SDS011;11930;53.076;18.250;2024-03-23T14:53:40;3.87;;;1.50;;
23506;SDS011;11930;53.076;18.250;2024-03-23T14:56:10;4.70;;;1.53;;
23506;SDS011;11930;53.076;18.250;2024-03-23T14:58:39;12.83;;;6.80;;
23506;SDS011;11930;53.076;18.250;2024-03-23T15:01:06;9.17;;;4.10;;
23506;SDS011;11930;53.076;18.250;2024-03-23T15:03:37;8.00;;;2.93;;
23506;SDS011;11930;53.076;18.250;2024-03-23T15:06:08;4.23;;;1.73;;
23506;SDS011;11930;53.076;18.250;2024-03-23T15:08:35;3.87;;;1.50;;
23506;SDS011;11930;53.076;18.250;2024-03-23T15:11:02;4.73;;;1.70;;
23506;SDS011;11930;53.076;18.250;2024-03-23T15:13:34;5.10;;;2.23;;
23506;SDS011;11930;53.076;18.250;2024-03-23T15:16:01;5.20;;;2.17;;
23506;SDS011;11930;53.076;18.250;2024-03-23T15:18:29;4.93;;;2.20;;
23506;SDS011;11930;53.076;18.250;2024-03-23T15:20:56;6.03;;;2.20;;
23506;SDS011;11930;53.076;18.250;2024-03-23T15:23:28;4.03;;;2.10;;
23506;SDS011;11930;53.076;18.250;2024-03-23T15:25:55;6.00;;;1.70;;
23506;SDS011;11930;53.076;18.250;2024-03-23T15:28:22;4.93;;;2.20;;
23506;SDS011;11930;53.076;18.250;2024-03-23T15:30:49;6.43;;;3.07;;
23506;SDS011;11930;53.076;18.250;2024-03-23T15:33:15;5.27;;;2.40;;